Chadstone Weather > Observations for 13/09/20

Select Day:



Observations
Time Temp Hum DP Wind Gust Dir Rain >9am Press
C % C kph kph mm hPa
00:00 13.3 98 13.0 2.0 6.1 NNW 9.6 1026.7
00:10 13.2 98 12.9 0.7 5.0 W 9.9 1026.8
00:20 13.2 98 12.9 0.5 3.6 SSW 9.9 1026.7
00:30 13.2 99 13.1 0.0 2.5 S 10.2 1026.9
00:40 13.3 99 13.2 0.2 2.5 WNW 11.1 1026.9
00:50 13.4 99 13.3 0.0 1.1 S 11.7 1026.8
01:00 13.4 99 13.3 0.0 0.0 N 11.7 1026.8
01:10 13.4 99 13.3 0.0 0.0 N 11.7 1026.7
01:20 13.3 99 13.2 0.1 2.5 N 12.6 1026.5
01:30 13.3 99 13.2 0.0 1.1 ENE 12.6 1025.9
01:40 13.3 99 13.2 0.0 2.5 ENE 12.9 1025.7
01:50 13.3 99 13.2 0.0 2.5 WSW 13.2 1025.4
02:00 13.2 99 13.1 0.4 3.6 E 13.5 1025.2
02:10 13.2 99 13.1 0.7 5.0 NNW 13.5 1025.3
02:20 13.2 99 13.1 1.6 5.0 NNW 13.5 1025.2
02:30 13.1 99 13.0 0.1 2.5 N 13.8 1024.7
02:40 13.1 99 13.0 1.2 3.6 N 13.8 1024.8
02:50 13.1 99 13.0 1.1 2.5 N 13.8 1025.3
03:00 13.1 99 13.0 1.1 2.5 N 13.8 1025.0
03:10 13.1 99 13.0 1.1 2.5 N 13.8 1024.8
03:20 13.2 99 13.1 0.2 2.5 WSW 14.1 1024.7
03:30 13.1 99 13.0 0.1 2.5 SW 14.1 1024.5
03:40 13.1 99 13.0 0.2 2.5 NE 14.1 1024.3
03:50 13.1 99 13.0 0.0 0.0 N 14.1 1024.4
04:00 13.1 99 13.0 0.0 0.0 N 14.1 1024.4
04:10 13.1 99 13.0 0.0 0.0 N 14.1 1024.3
04:20 13.1 99 13.0 0.0 0.0 N 14.1 1024.6
04:30 13.1 99 13.0 0.0 0.0 N 14.1 1024.4
04:40 13.0 99 12.9 0.0 0.0 N 14.1 1024.3
04:50 13.0 99 12.9 0.0 0.0 N 14.1 1024.3
05:00 12.9 97 12.4 0.0 0.0 N 14.1 1024.6
05:10 12.9 97 12.4 0.0 0.0 N 14.1 1024.5
05:20 12.9 97 12.4 0.0 0.0 N 14.1 1024.8
05:30 12.9 97 12.4 0.0 0.0 N 14.1 1024.8
05:40 12.9 97 12.4 0.0 0.0 N 14.1 1024.9
05:50 12.9 97 12.4 0.0 0.0 N 14.1 1025.1
06:00 12.9 97 12.4 2.5 5.0 NW 14.1 1025.4
06:10 12.9 97 12.4 2.5 5.0 NW 14.1 1025.7
06:20 12.8 97 12.3 2.6 7.2 WNW 14.1 1025.8
06:30 12.8 97 12.3 2.4 8.6 WNW 14.1 1026.0
06:40 12.7 97 12.2 3.6 9.7 WSW 14.1 1026.2
06:50 12.7 97 12.2 3.6 6.1 SW 14.1 1026.2
07:00 12.7 97 12.2 3.6 6.1 SW 14.1 1026.5
07:10 12.7 97 12.2 3.6 6.1 SW 14.1 1026.6
07:20 12.7 97 12.2 3.6 6.1 SW 14.1 1026.7
07:30 12.7 97 12.2 3.6 6.1 SW 14.1 1026.5
07:40 12.7 97 12.2 3.6 6.1 SW 14.1 1026.7
07:50 12.7 97 12.2 3.6 6.1 SW 14.1 1026.9
08:00 12.7 97 12.2 3.6 6.1 SW 14.1 1027.1
08:10 12.7 97 12.2 3.6 6.1 SW 14.1 1027.3
08:20 12.7 97 12.2 3.6 6.1 SW 14.1 1027.5
08:30 12.7 97 12.2 3.6 6.1 SW 14.1 1027.6
08:40 12.7 97 12.2 3.6 6.1 SW 14.1 1027.8
08:50 12.7 97 12.2 3.6 6.1 SW 14.1 1027.9
09:00 12.1 97 11.6 6.0 20.9 WSW 0.0 1027.9
09:10 12.1 97 11.6 2.7 13.3 W 0.0 1028.0
09:20 12.3 97 11.8 6.3 15.8 WNW 0.0 1028.0
09:30 12.3 97 11.8 3.4 14.8 W 0.0 1027.9
09:40 12.4 97 11.9 3.6 12.2 W 0.0 1027.8
09:50 12.5 97 12.0 6.2 14.8 WNW 0.0 1027.8
10:00 12.5 97 12.0 5.6 13.3 W 0.0 1027.9
10:10 12.7 97 12.2 4.3 14.8 WNW 0.0 1027.9
10:20 12.8 96 12.2 5.7 8.6 W 0.0 1028.0
10:30 13.0 95 12.2 4.0 8.6 WSW 0.0 1027.9
10:40 13.0 95 12.2 10.0 14.8 W 0.0 1027.9
10:50 13.0 95 12.2 11.2 14.8 W 0.0 1027.7
11:00 13.6 91 12.2 6.1 9.7 NW 0.0 1027.7
11:10 14.0 89 12.2 5.4 13.3 WNW 0.0 1027.7
11:20 14.2 86 11.9 5.8 14.8 W 0.0 1027.9
11:30 14.5 84 11.8 4.4 14.8 SW 0.0 1027.8
11:40 14.6 81 11.4 3.5 12.2 SW 0.0 1027.7
11:50 14.8 80 11.4 2.8 9.7 WSW 0.0 1027.6
12:00 15.0 77 11.0 6.0 13.3 WSW 0.0 1027.4
12:10 15.3 75 10.9 4.6 17.3 W 0.0 1027.5
12:20 15.7 75 11.3 4.3 17.3 W 0.0 1027.5
12:30 15.6 71 10.4 4.1 14.8 SE 0.0 1027.4
12:40 15.8 73 11.0 3.8 17.3 WSW 0.0 1027.2
12:50 16.0 69 10.3 6.3 15.8 W 0.0 1027.3
13:00 16.0 68 10.1 4.8 12.2 WSW 0.0 1027.2
13:10 16.2 68 10.3 4.1 11.2 W 0.0 1027.2
13:20 16.4 66 10.0 2.7 9.7 SSW 0.0 1027.4
13:30 16.6 65 10.0 5.9 12.2 W 0.0 1027.1
13:40 16.7 64 9.9 3.4 9.7 SW 0.0 1027.1
13:50 17.0 63 9.9 6.5 14.8 W 0.0 1026.6
14:00 17.2 62 9.9 3.8 11.2 WSW 0.0 1026.5
14:10 17.2 61 9.6 3.2 11.2 WSW 0.0 1026.4
14:20 16.8 61 9.2 3.9 11.2 W 0.0 1026.4
14:30 16.8 62 9.5 2.6 9.7 W 0.0 1026.5
14:40 17.0 61 9.4 2.5 9.7 SW 0.0 1026.4
14:50 17.0 57 8.4 3.3 8.6 W 0.0 1026.5
15:00 17.0 60 9.2 6.0 13.3 NW 0.0 1026.5
15:10 17.0 58 8.7 4.4 14.8 W 0.0 1026.5
15:20 16.9 59 8.8 3.5 12.2 W 0.0 1026.4
15:30 16.8 58 8.5 4.2 12.2 WSW 0.0 1026.5
15:40 16.6 59 8.6 3.1 9.7 WSW 0.0 1026.6
15:50 16.7 60 8.9 3.6 12.2 WNW 0.0 1026.7
16:00 16.6 59 8.6 2.4 8.6 SSW 0.0 1026.9
16:10 16.6 57 8.1 3.2 14.8 SSW 0.0 1026.8
16:20 16.6 58 8.3 3.8 14.8 WSW 0.0 1026.8
16:30 16.5 59 8.5 5.0 13.3 WSW 0.0 1027.0
16:40 16.4 58 8.1 5.7 20.9 NW 0.0 1027.1
16:50 16.4 59 8.4 4.4 14.8 WSW 0.0 1027.1
17:00 16.2 58 7.9 4.7 15.8 WSW 0.0 1027.4
17:10 16.1 60 8.3 3.8 11.2 SW 0.0 1027.5
17:20 15.9 61 8.4 4.0 12.2 SW 0.0 1027.7
17:30 15.8 62 8.5 3.3 12.2 WSW 0.0 1028.1
17:40 15.5 62 8.3 6.2 15.8 SW 0.0 1028.2
17:50 15.3 63 8.3 3.2 12.2 SSW 0.0 1028.2
18:00 15.2 64 8.4 2.1 11.2 SW 0.0 1028.3
18:10 15.1 64 8.3 5.5 13.3 SW 0.0 1028.5
18:20 14.9 66 8.6 3.5 15.8 SSW 0.0 1028.6
18:30 14.7 66 8.4 3.7 14.8 SW 0.0 1028.7
18:40 14.5 67 8.5 2.6 14.8 WSW 0.0 1028.9
18:50 14.4 68 8.6 1.3 6.1 SW 0.0 1029.1
19:00 14.2 69 8.6 2.5 7.2 SW 0.0 1029.1
19:10 14.1 69 8.5 2.5 13.3 SW 0.0 1029.2
19:20 14.0 69 8.4 3.6 15.8 WSW 0.0 1029.4
19:30 14.0 68 8.2 3.5 9.7 W 0.0 1029.6
19:40 14.0 68 8.2 4.0 13.3 W 0.0 1029.7
19:50 14.0 67 8.0 5.6 14.8 WSW 0.0 1029.8
20:00 14.0 67 8.0 4.5 11.2 W 0.0 1029.8
20:10 14.0 67 8.0 7.2 13.3 W 0.0 1030.1
20:20 14.0 66 7.8 4.9 12.2 WNW 0.0 1030.3
20:30 14.0 66 7.8 5.3 12.2 W 0.0 1030.4
20:40 14.0 66 7.8 4.5 13.3 WNW 0.0 1030.5
20:50 13.9 68 8.1 4.5 11.2 W 0.0 1030.6
21:00 13.7 68 7.9 1.6 9.7 WSW 0.0 1031.0
21:10 13.6 70 8.2 2.6 8.6 WSW 0.0 1031.1
21:20 13.5 71 8.3 2.5 13.3 WSW 0.0 1031.3
21:30 13.4 72 8.5 2.2 6.1 SW 0.0 1031.4
21:40 13.2 74 8.7 1.1 6.1 WSW 0.0 1031.4
21:50 12.8 74 8.3 1.2 7.2 W 0.0 1031.3
22:00 12.6 75 8.3 0.0 2.5 NW 0.0 1031.4
22:10 12.4 76 8.3 0.0 0.0 N 0.0 1031.5
22:20 12.3 77 8.4 0.0 0.0 N 0.0 1031.3
22:30 12.3 79 8.8 0.8 3.6 N 0.0 1031.4
22:40 12.3 80 9.0 2.3 5.0 NW 0.0 1031.3
22:50 12.3 81 9.1 2.8 7.2 NW 0.0 1031.1
23:00 12.3 81 9.1 1.9 7.2 N 0.0 1031.1
23:10 12.3 81 9.1 2.7 5.0 N 0.0 1031.0
23:20 12.1 81 8.9 1.6 6.1 NNW 0.0 1031.0
23:30 11.9 82 8.9 2.1 7.2 NNW 0.0 1030.8
23:40 11.8 82 8.8 2.5 7.2 N 0.0 1031.0
23:50 11.8 82 8.8 2.4 6.1 N 0.0 1030.8